createdAt,value
2024-02-10T00:00:22.019Z,104.80
2024-02-10T00:05:27.560Z,119.97
2024-02-10T00:10:35.337Z,123.60
2024-02-10T00:15:41.917Z,115.00
2024-02-10T00:20:49.029Z,113.97
2024-02-10T00:25:54.788Z,143.60
2024-02-10T00:31:01.253Z,158.57
2024-02-10T00:36:07.827Z,147.53
2024-02-10T00:41:14.529Z,107.67
2024-02-10T00:46:20.929Z,112.87
2024-02-10T00:51:26.266Z,119.00
2024-02-10T00:56:31.389Z,99.70
2024-02-10T01:01:37.558Z,95.53
2024-02-10T01:06:44.353Z,99.43
2024-02-10T01:11:49.655Z,89.20
2024-02-10T01:16:55.189Z,91.27
2024-02-10T01:22:00.534Z,85.73
2024-02-10T01:27:07.490Z,96.67
2024-02-10T01:32:12.694Z,93.80
2024-02-10T01:37:19.254Z,89.73
2024-02-10T01:42:28.804Z,94.37
2024-02-10T01:47:35.406Z,99.50
2024-02-10T01:52:41.885Z,87.97
2024-02-10T01:57:49.184Z,84.30
2024-02-10T02:02:56.651Z,92.37
2024-02-10T02:08:04.987Z,84.30
2024-02-10T02:13:10.294Z,83.83
2024-02-10T02:18:15.944Z,83.27
2024-02-10T02:23:21.219Z,89.87
2024-02-10T02:28:26.955Z,83.63
2024-02-10T02:33:34.162Z,84.93
2024-02-10T02:38:41.489Z,81.00
2024-02-10T02:43:46.829Z,90.40
2024-02-10T02:48:53.466Z,76.77
2024-02-10T02:53:59.089Z,80.50
2024-02-10T02:59:05.941Z,69.43
2024-02-10T03:04:11.715Z,70.97
2024-02-10T03:09:17.859Z,72.23
2024-02-10T03:14:23.181Z,72.60
2024-02-10T03:19:28.582Z,73.67
2024-02-10T03:24:34.890Z,70.90
2024-02-10T03:29:40.733Z,71.70
2024-02-10T03:34:46.478Z,59.37
2024-02-10T03:39:53.784Z,61.43
2024-02-10T03:44:59.361Z,57.57
2024-02-10T03:50:06.111Z,62.97
2024-02-10T03:55:12.195Z,61.97
2024-02-10T04:00:22.059Z,63.03
2024-02-10T04:05:29.457Z,58.87
2024-02-10T04:10:34.940Z,60.53
2024-02-10T04:15:41.208Z,61.37
2024-02-10T04:20:48.071Z,68.03
2024-02-10T04:25:53.691Z,59.93
2024-02-10T04:30:59.232Z,65.40
2024-02-10T04:36:05.137Z,67.40
2024-02-10T04:41:10.306Z,71.30
2024-02-10T04:46:18.380Z,66.07
2024-02-10T04:51:25.103Z,64.57
2024-02-10T04:56:31.308Z,63.13
2024-02-10T05:06:54.761Z,69.47
2024-02-10T05:12:00.372Z,65.47
2024-02-10T05:17:06.224Z,65.93
2024-02-10T05:22:13.511Z,89.87
2024-02-10T05:27:18.834Z,109.93
2024-02-10T05:32:24.582Z,154.17
2024-02-10T05:37:29.785Z,85.90
2024-02-10T05:42:34.952Z,74.77
2024-02-10T05:47:41.395Z,99.20
2024-02-10T05:52:46.746Z,85.23
2024-02-10T05:57:53.468Z,86.60
2024-02-10T06:02:58.735Z,77.43
2024-02-10T06:08:04.301Z,75.00
2024-02-10T06:13:09.839Z,78.07
2024-02-10T06:18:18.351Z,85.80
2024-02-10T06:23:25.991Z,75.23
2024-02-10T06:28:32.520Z,82.60
2024-02-10T06:33:37.668Z,81.27
2024-02-10T06:38:43.547Z,77.97
2024-02-10T06:43:48.923Z,78.57
2024-02-10T06:48:54.308Z,79.07
2024-02-10T06:53:59.785Z,72.47
2024-02-10T06:59:05.704Z,85.87
2024-02-10T07:04:12.900Z,82.37
2024-02-10T07:09:19.413Z,71.50
2024-02-10T07:14:25.075Z,71.23
2024-02-10T07:19:32.637Z,78.13
2024-02-10T07:24:39.586Z,83.97
2024-02-10T07:29:46.375Z,89.93
2024-02-10T07:34:51.665Z,98.53
2024-02-10T07:39:58.342Z,88.10
2024-02-10T07:45:03.999Z,77.07
2024-02-10T07:50:12.030Z,81.73
2024-02-10T07:55:18.013Z,76.33
2024-02-10T08:00:24.656Z,66.33
2024-02-10T08:05:31.108Z,60.20
2024-02-10T08:10:36.422Z,57.33
2024-02-10T08:15:42.079Z,49.77
2024-02-10T08:20:47.660Z,53.63
2024-02-10T08:25:54.454Z,47.10
2024-02-10T08:31:00.846Z,81.57
2024-02-10T08:36:07.357Z,69.40
2024-02-10T08:41:13.257Z,110.33
2024-02-10T08:46:20.603Z,71.67
2024-02-10T08:51:27.351Z,64.83
2024-02-10T08:56:34.920Z,58.67
2024-02-10T09:01:42.491Z,64.53
2024-02-10T09:06:47.869Z,65.73
2024-02-10T09:11:53.216Z,72.67
2024-02-10T09:17:00.047Z,56.33
2024-02-10T09:22:06.413Z,56.10
2024-02-10T09:27:11.821Z,50.40
2024-02-10T09:32:17.137Z,44.10
2024-02-10T09:37:22.587Z,34.40
2024-02-10T09:42:30.842Z,38.03
2024-02-10T09:47:37.005Z,35.00
2024-02-10T09:52:43.945Z,37.40
2024-02-10T09:57:50.514Z,32.20
2024-02-10T10:02:57.372Z,27.00
2024-02-10T10:08:02.614Z,25.87
2024-02-10T10:13:10.872Z,25.20
2024-02-10T10:18:17.974Z,27.30
2024-02-10T10:23:23.599Z,20.47
2024-02-10T10:28:29.042Z,24.17
2024-02-10T10:33:36.269Z,23.90
2024-02-10T10:38:45.635Z,20.47
2024-02-10T10:43:52.411Z,23.50
2024-02-10T10:48:58.018Z,25.23
2024-02-10T10:54:05.611Z,25.67
2024-02-10T10:59:12.169Z,21.97
2024-02-10T11:04:19.247Z,24.20
2024-02-10T11:09:26.625Z,28.53
2024-02-10T11:14:31.972Z,21.80
2024-02-10T11:19:37.482Z,23.70
2024-02-10T11:24:49.098Z,21.13
2024-02-10T11:29:58.473Z,21.87
2024-02-10T11:35:04.332Z,21.67
2024-02-10T11:40:13.916Z,18.57
2024-02-10T11:45:20.971Z,20.90
2024-02-10T11:50:26.275Z,20.73
2024-02-10T11:55:34.469Z,22.40
2024-02-10T12:00:41.711Z,24.83
2024-02-10T12:05:48.431Z,23.80
2024-02-10T12:10:53.946Z,31.50
2024-02-10T12:16:04.826Z,27.53
2024-02-10T12:21:11.613Z,28.00
2024-02-10T12:26:17.590Z,27.13
2024-02-10T12:31:22.865Z,30.97
2024-02-10T12:36:29.749Z,25.07
2024-02-10T12:41:36.532Z,19.90
2024-02-10T12:46:42.022Z,21.73
2024-02-10T12:51:48.976Z,18.10
2024-02-10T12:56:54.938Z,22.20
2024-02-10T13:02:00.171Z,21.60
2024-02-10T13:07:05.725Z,21.70
2024-02-10T13:12:10.904Z,34.90
2024-02-10T13:17:16.200Z,30.90
2024-02-10T13:22:21.481Z,37.07
2024-02-10T13:27:27.081Z,31.43
2024-02-10T13:32:32.819Z,34.23
2024-02-10T13:37:55.976Z,31.50
2024-02-10T13:43:19.329Z,34.10
2024-02-10T13:48:42.405Z,33.90
2024-02-10T13:54:05.786Z,37.23
2024-02-10T13:59:10.135Z,30.70
2024-02-10T14:04:17.117Z,32.60
2024-02-10T14:09:24.114Z,40.00
2024-02-10T14:14:30.277Z,42.13
2024-02-10T14:19:35.491Z,66.03
2024-02-10T14:24:42.892Z,52.37
2024-02-10T14:29:48.667Z,115.63
2024-02-10T14:35:06.161Z,297.90
2024-02-10T14:40:14.653Z,107.50
2024-02-10T14:45:22.325Z,72.23
2024-02-10T14:50:29.054Z,64.00
2024-02-10T14:55:34.346Z,64.63
2024-02-10T15:00:39.563Z,69.37
2024-02-10T15:05:44.965Z,68.53
2024-02-10T15:10:50.976Z,75.13
2024-02-10T15:15:56.239Z,121.17
2024-02-10T15:21:01.405Z,98.50
2024-02-10T15:26:07.474Z,112.80
2024-02-10T15:31:13.054Z,133.63
2024-02-10T15:36:27.511Z,103.60
2024-02-10T15:41:35.238Z,101.37
2024-02-10T15:46:41.661Z,106.47
2024-02-10T15:51:47.396Z,137.10
2024-02-10T15:56:54.207Z,124.33
2024-02-10T16:01:59.513Z,128.20
2024-02-10T16:07:05.364Z,145.10
2024-02-10T16:12:10.715Z,124.50
2024-02-10T16:17:16.469Z,114.70
2024-02-10T16:22:21.904Z,95.60
2024-02-10T16:27:28.624Z,126.90
2024-02-10T16:32:35.160Z,181.97
2024-02-10T16:37:40.689Z,134.50
2024-02-10T16:42:45.933Z,153.03
2024-02-10T16:47:52.302Z,219.00
2024-02-10T16:53:02.317Z,335.40
2024-02-10T16:58:09.401Z,140.13
2024-02-10T17:03:15.317Z,120.60
2024-02-10T17:08:23.681Z,135.60
2024-02-10T17:13:29.796Z,126.10
2024-02-10T17:18:37.340Z,161.10
2024-02-10T17:23:42.642Z,128.53
2024-02-10T17:28:47.988Z,134.43
2024-02-10T17:33:53.363Z,133.37
2024-02-10T17:39:01.856Z,129.30
2024-02-10T17:44:07.413Z,122.40
2024-02-10T17:49:12.838Z,139.30
2024-02-10T17:54:20.601Z,146.63
2024-02-10T17:59:27.449Z,150.83
2024-02-10T18:04:32.982Z,154.80
2024-02-10T18:09:39.470Z,140.77
2024-02-10T18:14:44.672Z,132.00
2024-02-10T18:19:50.036Z,128.53
2024-02-10T18:24:55.423Z,123.53
2024-02-10T18:30:00.709Z,116.03
2024-02-10T18:35:07.530Z,135.50
2024-02-10T18:40:14.028Z,211.67
2024-02-10T18:45:19.781Z,102.67
2024-02-10T18:50:25.162Z,112.50
2024-02-10T18:55:31.072Z,133.10
2024-02-10T19:00:36.551Z,148.33
2024-02-10T19:05:42.101Z,125.70
2024-02-10T19:10:48.614Z,255.77
2024-02-10T19:15:53.971Z,368.43
2024-02-10T19:21:00.716Z,453.70
2024-02-10T19:26:07.614Z,235.70
2024-02-10T19:31:14.275Z,186.33
2024-02-10T19:36:20.479Z,231.67
2024-02-10T19:41:27.041Z,259.73
2024-02-10T19:46:32.283Z,112.90
2024-02-10T19:51:38.265Z,96.17
2024-02-10T19:56:43.795Z,105.47
2024-02-10T20:01:49.243Z,104.73
2024-02-10T20:06:56.457Z,181.37
2024-02-10T20:12:04.131Z,125.23
2024-02-10T20:17:11.361Z,141.43
2024-02-10T20:22:18.742Z,105.60
2024-02-10T20:27:24.828Z,105.53
2024-02-10T20:32:29.997Z,98.80
2024-02-10T20:37:35.736Z,92.93
2024-02-10T20:42:41.610Z,87.67
2024-02-10T20:47:49.667Z,82.67
2024-02-10T20:52:55.379Z,76.57
2024-02-10T20:58:02.188Z,82.53
2024-02-10T21:03:08.574Z,86.70
2024-02-10T21:08:14.847Z,85.57
2024-02-10T21:13:20.220Z,89.00
2024-02-10T21:18:26.530Z,74.63
2024-02-10T21:23:33.523Z,79.53
2024-02-10T21:28:41.471Z,86.00
2024-02-10T21:33:46.847Z,87.90
2024-02-10T21:38:52.172Z,81.33
2024-02-10T21:43:57.450Z,80.97
2024-02-10T21:49:03.540Z,98.47
2024-02-10T21:54:08.875Z,191.03
2024-02-10T21:59:16.306Z,85.87
2024-02-10T22:04:23.473Z,104.40
2024-02-10T22:09:29.012Z,106.30
2024-02-10T22:14:34.980Z,114.80
2024-02-10T22:19:40.239Z,112.27
2024-02-10T22:24:45.519Z,78.30
2024-02-10T22:29:51.014Z,87.20
2024-02-10T22:34:56.484Z,82.17
2024-02-10T22:40:01.974Z,74.30
2024-02-10T22:45:09.827Z,67.23
2024-02-10T22:50:16.634Z,75.30
2024-02-10T22:55:23.878Z,77.87
2024-02-10T23:00:35.324Z,70.50
2024-02-10T23:05:40.006Z,79.30
2024-02-10T23:10:45.765Z,95.47
2024-02-10T23:15:52.372Z,77.03
2024-02-10T23:20:59.548Z,80.53
2024-02-10T23:26:06.613Z,75.80
2024-02-10T23:31:12.829Z,72.77
2024-02-10T23:36:21.066Z,84.90
2024-02-10T23:41:26.580Z,74.90
2024-02-10T23:46:33.013Z,67.73
2024-02-10T23:51:38.612Z,73.80
2024-02-10T23:56:45.467Z,72.13
